createdAt,value
2019-05-13T00:00:34.309Z,71.54
2019-05-13T00:01:35.374Z,71.54
2019-05-13T00:02:34.541Z,50.27
2019-05-13T00:03:35.397Z,51.08
2019-05-13T00:04:34.251Z,50.76
2019-05-13T00:05:34.376Z,50.60
2019-05-13T00:06:48.952Z,53.66
2019-05-13T00:07:35.738Z,77.50
2019-05-13T00:08:34.945Z,51.88
2019-05-13T00:09:35.099Z,51.24
2019-05-13T00:10:35.255Z,49.31
2019-05-13T00:11:35.402Z,63.65
2019-05-13T00:12:35.917Z,78.63
2019-05-13T00:13:35.658Z,67.19
2019-05-13T00:14:36.401Z,76.70
2019-05-13T00:15:36.029Z,78.15
2019-05-13T00:16:36.179Z,79.76
2019-05-13T00:17:36.410Z,51.24
2019-05-13T00:18:36.530Z,74.44
2019-05-13T00:19:36.673Z,79.44
2019-05-13T00:20:37.387Z,64.13
2019-05-13T00:21:36.976Z,74.93
2019-05-13T00:22:37.401Z,49.95
2019-05-13T00:23:37.284Z,72.99
2019-05-13T00:24:38.394Z,55.59
2019-05-13T00:25:37.622Z,50.11
2019-05-13T00:26:37.735Z,79.44
2019-05-13T00:27:38.406Z,52.21
2019-05-13T00:28:38.177Z,50.92
2019-05-13T00:29:38.298Z,56.88
2019-05-13T00:30:38.541Z,50.76
2019-05-13T00:31:38.900Z,78.31
2019-05-13T00:32:39.893Z,51.88
2019-05-13T00:33:39.131Z,51.40
2019-05-13T00:34:39.269Z,50.60
2019-05-13T00:35:39.893Z,50.60
2019-05-13T00:36:39.637Z,50.43
2019-05-13T00:37:39.772Z,81.86
2019-05-13T00:38:40.888Z,75.25
2019-05-13T00:39:40.258Z,68.16
2019-05-13T00:40:40.398Z,77.99
2019-05-13T00:41:40.558Z,50.43
2019-05-13T00:42:40.669Z,50.60
2019-05-13T00:43:44.468Z,50.43
2019-05-13T00:44:44.366Z,50.60
2019-05-13T00:45:44.183Z,59.30
2019-05-13T00:46:44.117Z,50.76
2019-05-13T00:47:43.666Z,78.15
2019-05-13T00:48:43.914Z,56.88
2019-05-13T00:49:43.775Z,73.80
2019-05-13T00:50:44.257Z,69.93
2019-05-13T00:51:44.507Z,80.73
2019-05-13T00:52:45.035Z,50.60
2019-05-13T00:53:44.201Z,79.28
2019-05-13T00:54:44.225Z,50.27
2019-05-13T00:56:16.546Z,78.31
2019-05-13T00:56:43.680Z,49.47
2019-05-13T00:57:44.509Z,51.08
2019-05-13T00:58:43.933Z,50.92
2019-05-13T00:59:44.920Z,50.27
2019-05-13T01:00:44.451Z,51.40
2019-05-13T01:01:45.342Z,54.14
2019-05-13T01:02:44.875Z,76.22
2019-05-13T01:03:46.427Z,50.60
2019-05-13T01:04:45.908Z,50.60
2019-05-13T01:05:45.149Z,50.11
2019-05-13T01:06:45.909Z,51.56
2019-05-13T01:07:45.917Z,50.60
2019-05-13T01:08:46.409Z,50.60
2019-05-13T01:09:46.422Z,77.83
2019-05-13T01:10:45.927Z,56.72
2019-05-13T01:11:45.983Z,50.60
2019-05-13T01:12:46.140Z,51.24
2019-05-13T01:13:46.317Z,53.17
2019-05-13T01:14:47.428Z,50.60
2019-05-13T01:15:46.690Z,52.21
2019-05-13T01:16:46.877Z,77.18
2019-05-13T01:17:47.073Z,51.24
2019-05-13T01:18:47.933Z,50.92
2019-05-13T01:19:47.931Z,51.24
2019-05-13T01:20:47.585Z,81.37
2019-05-13T01:21:47.734Z,74.28
2019-05-13T01:22:48.427Z,73.48
2019-05-13T01:24:21.467Z,51.24
2019-05-13T01:24:48.954Z,50.76
2019-05-13T01:25:48.319Z,78.15
2019-05-13T01:26:48.438Z,59.62
2019-05-13T01:27:48.578Z,82.02
2019-05-13T01:28:48.967Z,51.40
2019-05-13T01:29:48.848Z,75.73
2019-05-13T01:30:49.105Z,73.80
2019-05-13T01:31:49.253Z,50.60
2019-05-13T01:32:49.440Z,53.66
2019-05-13T01:33:49.616Z,63.49
2019-05-13T01:34:49.744Z,77.02
2019-05-13T01:35:50.458Z,51.56
2019-05-13T01:36:50.068Z,51.24
2019-05-13T01:37:50.465Z,52.21
2019-05-13T01:38:50.520Z,76.38
2019-05-13T01:39:50.645Z,53.33
2019-05-13T01:40:50.966Z,51.72
2019-05-13T01:41:51.096Z,74.93
2019-05-13T01:42:54.035Z,78.63
2019-05-13T01:43:51.472Z,55.11
2019-05-13T01:44:53.398Z,52.05
2019-05-13T01:45:53.702Z,51.24
2019-05-13T01:46:53.802Z,57.36
2019-05-13T01:47:54.508Z,57.36
2019-05-13T01:48:54.367Z,50.60
2019-05-13T01:49:54.298Z,50.60
2019-05-13T01:50:53.957Z,54.95
2019-05-13T01:52:26.331Z,54.46
2019-05-13T01:52:53.394Z,51.56
2019-05-13T01:53:54.250Z,77.67
2019-05-13T01:54:54.433Z,54.14
2019-05-13T01:55:54.987Z,55.75
2019-05-13T01:56:53.943Z,52.21
2019-05-13T01:57:54.190Z,77.34
2019-05-13T01:58:54.319Z,76.38
2019-05-13T01:59:54.489Z,79.28
2019-05-13T02:00:55.198Z,73.64
2019-05-13T02:01:55.758Z,75.25
2019-05-13T02:02:54.855Z,76.86
2019-05-13T02:03:55.989Z,68.32
2019-05-13T02:04:55.488Z,53.33
2019-05-13T02:05:56.005Z,82.18
2019-05-13T02:06:55.613Z,77.02
2019-05-13T02:08:00.454Z,69.29
2019-05-13T02:08:57.977Z,75.57
2019-05-13T02:09:56.199Z,79.28
2019-05-13T02:10:56.993Z,61.23
2019-05-13T02:11:56.492Z,56.07
2019-05-13T02:12:56.617Z,77.83
2019-05-13T02:13:56.755Z,69.77
2019-05-13T02:14:56.924Z,54.79
2019-05-13T02:15:57.041Z,73.48
2019-05-13T02:16:57.173Z,51.24
2019-05-13T02:17:57.308Z,76.54
2019-05-13T02:18:57.405Z,79.60
2019-05-13T02:19:58.659Z,77.67
2019-05-13T02:21:33.437Z,76.22
2019-05-13T02:21:58.011Z,54.79
2019-05-13T02:22:58.276Z,73.64
2019-05-13T02:23:58.407Z,70.74
2019-05-13T02:24:58.520Z,78.15
2019-05-13T02:25:58.763Z,79.76
2019-05-13T02:26:58.891Z,72.03
2019-05-13T02:27:59.519Z,78.63
2019-05-13T02:28:59.132Z,51.72
2019-05-13T02:30:00.023Z,80.24
2019-05-13T02:30:59.513Z,74.77
2019-05-13T02:32:02.759Z,63.16
2019-05-13T02:33:02.771Z,71.87
2019-05-13T02:34:02.481Z,80.57
2019-05-13T02:35:02.911Z,77.83
2019-05-13T02:36:02.992Z,74.44
2019-05-13T02:37:03.278Z,77.18
2019-05-13T02:38:18.509Z,79.28
2019-05-13T02:39:03.014Z,76.54
2019-05-13T02:40:03.470Z,76.70
2019-05-13T02:41:03.070Z,78.31
2019-05-13T02:42:03.777Z,81.05
2019-05-13T02:43:03.098Z,78.96
2019-05-13T02:44:03.981Z,73.80
2019-05-13T02:45:03.663Z,81.69
2019-05-13T02:46:04.611Z,78.15
2019-05-13T02:47:04.082Z,81.21
2019-05-13T02:48:03.567Z,82.02
2019-05-13T02:49:36.387Z,79.60
2019-05-13T02:50:05.172Z,75.57
2019-05-13T02:51:04.353Z,78.79
2019-05-13T02:52:04.027Z,78.63
2019-05-13T02:53:03.554Z,75.89
2019-05-13T02:54:03.819Z,79.76
2019-05-13T02:55:04.537Z,81.05
2019-05-13T02:56:04.031Z,81.53
2019-05-13T02:57:04.333Z,78.79
2019-05-13T02:58:04.352Z,74.93
2019-05-13T02:59:04.471Z,79.44
2019-05-13T03:00:04.629Z,78.79
2019-05-13T03:01:05.524Z,78.96
2019-05-13T03:02:05.024Z,81.21
2019-05-13T03:03:05.237Z,81.86
2019-05-13T03:04:06.370Z,79.76
2019-05-13T03:05:06.535Z,77.83
2019-05-13T03:06:05.776Z,80.24
2019-05-13T03:07:05.918Z,78.31
2019-05-13T03:08:06.585Z,80.89
2019-05-13T03:09:06.176Z,80.08
2019-05-13T03:10:06.309Z,79.28
2019-05-13T03:11:07.066Z,82.18
2019-05-13T03:12:07.543Z,79.60
2019-05-13T03:13:06.961Z,82.34
2019-05-13T03:14:07.116Z,78.47
2019-05-13T03:15:07.297Z,81.37
2019-05-13T03:16:07.460Z,76.70
2019-05-13T03:17:43.243Z,82.50
2019-05-13T03:18:07.754Z,76.70
2019-05-13T03:19:07.883Z,80.89
2019-05-13T03:20:11.923Z,82.34
2019-05-13T03:21:12.437Z,80.57
2019-05-13T03:22:08.277Z,82.02
2019-05-13T03:23:08.406Z,82.18
2019-05-13T03:24:08.556Z,82.02
2019-05-13T03:25:08.719Z,80.89
2019-05-13T03:26:08.858Z,81.21
2019-05-13T03:27:12.712Z,80.57
2019-05-13T03:28:09.216Z,83.14
2019-05-13T03:29:09.356Z,83.14
2019-05-13T03:30:15.729Z,81.53
2019-05-13T03:31:15.909Z,82.98
2019-05-13T03:32:16.653Z,80.73
2019-05-13T03:33:18.586Z,82.50
2019-05-13T03:34:15.489Z,82.98
2019-05-13T03:35:16.288Z,81.37
2019-05-13T03:36:16.693Z,83.95
2019-05-13T03:37:15.459Z,80.89
2019-05-13T03:38:12.924Z,82.02
2019-05-13T03:39:16.097Z,84.59
2019-05-13T03:40:13.341Z,80.89
2019-05-13T03:41:13.072Z,81.21
2019-05-13T03:42:12.567Z,82.02
2019-05-13T03:43:12.992Z,80.57
2019-05-13T03:44:13.832Z,82.82
2019-05-13T03:45:13.492Z,81.86
2019-05-13T03:46:12.743Z,82.98
2019-05-13T03:47:13.573Z,81.05
2019-05-13T03:48:13.071Z,87.82
2019-05-13T03:49:14.396Z,81.21
2019-05-13T03:50:14.067Z,82.50
2019-05-13T03:51:13.868Z,81.05
2019-05-13T03:52:13.737Z,82.50
2019-05-13T03:53:13.857Z,81.53
2019-05-13T03:54:13.983Z,82.34
2019-05-13T03:55:14.140Z,81.69
2019-05-13T03:56:14.259Z,82.66
2019-05-13T03:57:14.517Z,80.73
2019-05-13T03:58:14.640Z,81.21
2019-05-13T03:59:14.882Z,79.76
2019-05-13T04:00:15.565Z,82.18
2019-05-13T04:01:15.170Z,82.66
2019-05-13T04:02:15.313Z,82.02
2019-05-13T04:03:15.442Z,87.01
2019-05-13T04:04:15.577Z,82.34
2019-05-13T04:05:15.709Z,82.98
2019-05-13T04:06:16.567Z,84.11
2019-05-13T04:07:16.096Z,81.86
2019-05-13T04:08:17.061Z,83.63
2019-05-13T04:09:26.394Z,80.57
2019-05-13T04:10:18.573Z,82.66
2019-05-13T04:11:16.776Z,80.57
2019-05-13T04:12:16.933Z,82.50
2019-05-13T04:13:17.067Z,80.89
2019-05-13T04:14:52.822Z,82.18
2019-05-13T04:15:17.331Z,80.73
2019-05-13T04:16:17.465Z,86.69
2019-05-13T04:17:17.646Z,80.73
2019-05-13T04:18:18.803Z,82.34
2019-05-13T04:19:17.916Z,82.66
2019-05-13T04:20:18.076Z,82.02
2019-05-13T04:21:19.078Z,80.24
2019-05-13T04:22:18.441Z,81.53
2019-05-13T04:23:18.596Z,82.98
2019-05-13T04:24:18.775Z,87.17
2019-05-13T04:25:18.951Z,91.04
2019-05-13T04:26:23.179Z,82.66
2019-05-13T04:27:19.302Z,82.66
2019-05-13T04:28:22.137Z,81.53
2019-05-13T04:29:19.582Z,82.02
2019-05-13T04:30:22.350Z,82.02
2019-05-13T04:31:22.814Z,80.41
2019-05-13T04:32:22.942Z,82.02
2019-05-13T04:33:22.949Z,83.47
2019-05-13T04:34:22.893Z,82.66
2019-05-13T04:35:23.219Z,81.86
2019-05-13T04:36:23.421Z,81.86
2019-05-13T04:37:22.477Z,82.18
2019-05-13T04:38:22.957Z,79.76
2019-05-13T04:39:40.409Z,83.79
2019-05-13T04:40:23.609Z,82.02
2019-05-13T04:41:23.234Z,80.41
2019-05-13T04:42:23.308Z,81.69
2019-05-13T04:43:23.785Z,84.43
2019-05-13T04:44:24.115Z,81.21
2019-05-13T04:45:24.279Z,81.53
2019-05-13T04:46:23.777Z,82.02
2019-05-13T04:47:43.886Z,80.41
2019-05-13T04:48:25.092Z,81.05
2019-05-13T04:49:23.659Z,82.50
2019-05-13T04:50:23.605Z,81.05
2019-05-13T04:51:23.621Z,80.41
2019-05-13T04:52:23.741Z,81.37
2019-05-13T04:53:24.589Z,82.66
2019-05-13T04:54:24.602Z,83.79
2019-05-13T04:55:24.253Z,82.82
2019-05-13T04:56:25.092Z,83.79
2019-05-13T04:57:25.096Z,82.02
2019-05-13T04:58:25.597Z,83.63
2019-05-13T04:59:25.604Z,81.21
2019-05-13T05:00:25.166Z,78.79
2019-05-13T05:01:25.376Z,81.53
2019-05-13T05:02:36.618Z,84.27
2019-05-13T05:03:32.972Z,85.72
2019-05-13T05:04:30.912Z,82.50
2019-05-13T05:05:28.219Z,86.69
2019-05-13T05:06:26.326Z,80.41
2019-05-13T05:07:26.485Z,83.63
2019-05-13T05:08:27.625Z,82.82
2019-05-13T05:09:26.885Z,82.34
2019-05-13T05:11:02.472Z,80.24
2019-05-13T05:11:27.230Z,74.12
2019-05-13T05:12:27.400Z,83.31
2019-05-13T05:13:27.537Z,81.21
2019-05-13T05:14:28.628Z,80.24
2019-05-13T05:15:28.628Z,84.92
2019-05-13T05:16:29.143Z,83.14
2019-05-13T05:17:28.651Z,83.47
2019-05-13T05:18:28.415Z,81.53
2019-05-13T05:19:31.889Z,81.53
2019-05-13T05:20:32.106Z,81.69
2019-05-13T05:21:28.876Z,80.57
2019-05-13T05:22:31.404Z,88.30
2019-05-13T05:23:29.202Z,81.37
2019-05-13T05:24:32.355Z,80.89
2019-05-13T05:25:29.491Z,80.08
2019-05-13T05:26:31.370Z,80.24
2019-05-13T05:27:31.662Z,82.98
2019-05-13T05:28:31.991Z,82.02
2019-05-13T05:29:32.253Z,80.41
2019-05-13T05:30:32.293Z,79.12
2019-05-13T05:31:32.656Z,78.96
2019-05-13T05:32:32.378Z,81.86
2019-05-13T05:33:32.024Z,80.41
2019-05-13T05:34:32.332Z,79.60
2019-05-13T05:35:33.125Z,86.21
2019-05-13T05:36:32.202Z,84.27
2019-05-13T05:37:33.639Z,79.60
2019-05-13T05:38:32.148Z,81.69
2019-05-13T05:39:32.040Z,81.53
2019-05-13T05:40:34.782Z,81.37
2019-05-13T05:41:32.352Z,81.21
2019-05-13T05:42:33.126Z,78.63
2019-05-13T05:43:33.123Z,81.69
2019-05-13T05:44:32.889Z,78.15
2019-05-13T05:45:32.906Z,81.53
2019-05-13T05:46:33.039Z,87.66
2019-05-13T05:47:34.124Z,81.37
2019-05-13T05:48:33.462Z,83.31
2019-05-13T05:49:33.683Z,81.21
2019-05-13T05:50:33.796Z,79.76
2019-05-13T05:51:34.048Z,80.89
2019-05-13T05:52:34.194Z,80.24
2019-05-13T05:53:34.300Z,81.69
2019-05-13T05:54:34.544Z,82.98
2019-05-13T05:55:34.643Z,86.37
2019-05-13T05:56:34.783Z,81.86
2019-05-13T05:57:35.046Z,81.53
2019-05-13T05:58:35.173Z,82.18
2019-05-13T05:59:35.341Z,79.60
2019-05-13T06:00:35.429Z,81.21
2019-05-13T06:01:37.421Z,82.50
2019-05-13T06:02:37.632Z,77.67
2019-05-13T06:03:36.624Z,83.31
2019-05-13T06:04:37.171Z,82.34
2019-05-13T06:05:36.380Z,80.89
2019-05-13T06:06:36.491Z,79.44
2019-05-13T06:07:36.730Z,79.76
2019-05-13T06:08:36.969Z,82.50
2019-05-13T06:09:37.151Z,82.18
2019-05-13T06:10:47.272Z,80.57
2019-05-13T06:11:41.611Z,78.47
2019-05-13T06:12:37.646Z,80.41
2019-05-13T06:13:37.868Z,81.37
2019-05-13T06:14:38.128Z,80.57
2019-05-13T06:15:38.638Z,81.37
2019-05-13T06:16:38.358Z,81.86
2019-05-13T06:17:38.610Z,82.02
2019-05-13T06:18:38.732Z,77.50
2019-05-13T06:19:39.008Z,80.89
2019-05-13T06:20:39.141Z,79.76
2019-05-13T06:21:42.053Z,81.05
2019-05-13T06:22:39.446Z,77.83
2019-05-13T06:23:41.787Z,82.02
2019-05-13T06:24:42.085Z,78.96
2019-05-13T06:25:42.826Z,79.92
2019-05-13T06:26:42.062Z,80.08
2019-05-13T06:27:42.206Z,78.79
2019-05-13T06:28:41.621Z,80.24
2019-05-13T06:29:42.401Z,81.21
2019-05-13T06:30:42.158Z,80.73
2019-05-13T06:31:42.147Z,79.92
2019-05-13T06:32:41.883Z,79.12
2019-05-13T06:33:42.621Z,79.76
2019-05-13T06:34:41.767Z,79.76
2019-05-13T06:35:44.745Z,83.14
2019-05-13T06:36:43.075Z,80.89
2019-05-13T06:37:42.364Z,83.95
2019-05-13T06:39:04.031Z,80.08
2019-05-13T06:39:42.731Z,77.18
2019-05-13T06:40:43.648Z,82.18
2019-05-13T06:41:44.018Z,81.53
2019-05-13T06:42:43.136Z,80.73
2019-05-13T06:43:43.313Z,80.89
2019-05-13T06:45:16.354Z,83.79
2019-05-13T06:45:43.573Z,80.89
2019-05-13T06:46:43.727Z,80.73
2019-05-13T06:47:44.647Z,80.41
2019-05-13T06:48:44.124Z,80.08
2019-05-13T06:49:44.251Z,80.89
2019-05-13T06:50:44.455Z,81.21
2019-05-13T06:51:44.688Z,78.31
2019-05-13T06:52:44.720Z,78.96
2019-05-13T06:53:44.866Z,81.21
2019-05-13T06:54:45.663Z,82.02
2019-05-13T06:55:45.292Z,81.53
2019-05-13T06:56:45.473Z,81.53
2019-05-13T06:57:45.584Z,81.37
2019-05-13T06:58:46.670Z,81.21
2019-05-13T06:59:45.897Z,79.44
2019-05-13T07:00:46.661Z,80.24
2019-05-13T07:01:46.668Z,81.69
2019-05-13T07:02:46.419Z,78.63
2019-05-13T07:03:47.170Z,81.21
2019-05-13T07:04:46.789Z,81.37
2019-05-13T07:05:46.959Z,82.18
2019-05-13T07:06:47.144Z,83.14
2019-05-13T07:07:47.710Z,82.02
2019-05-13T07:08:47.451Z,81.05
2019-05-13T07:09:47.574Z,81.05
2019-05-13T07:10:47.711Z,81.86
2019-05-13T07:11:47.934Z,78.96
2019-05-13T07:12:48.084Z,81.21
2019-05-13T07:13:48.271Z,82.50
2019-05-13T07:14:51.157Z,77.83
2019-05-13T07:15:48.581Z,78.15
2019-05-13T07:16:48.731Z,80.41
2019-05-13T07:17:51.818Z,82.02
2019-05-13T07:18:49.080Z,79.76
2019-05-13T07:19:51.493Z,83.63
2019-05-13T07:20:49.436Z,76.86
2019-05-13T07:21:51.945Z,80.41
2019-05-13T07:22:53.181Z,77.99
2019-05-13T07:23:54.497Z,78.63
2019-05-13T07:24:51.899Z,81.05
2019-05-13T07:25:52.493Z,80.08
2019-05-13T07:26:52.355Z,80.24
2019-05-13T07:27:51.713Z,76.38
2019-05-13T07:28:52.450Z,80.73
2019-05-13T07:29:55.505Z,81.21
2019-05-13T07:30:51.726Z,79.28
2019-05-13T07:31:53.181Z,77.02
2019-05-13T07:32:52.378Z,80.73
2019-05-13T07:33:52.760Z,79.92
2019-05-13T07:34:53.223Z,84.11
2019-05-13T07:35:58.253Z,82.82
2019-05-13T07:36:54.428Z,79.60
2019-05-13T07:37:53.164Z,81.05
2019-05-13T07:38:53.185Z,78.79
2019-05-13T07:39:53.217Z,78.63
2019-05-13T07:40:54.674Z,80.24
2019-05-13T07:41:53.688Z,80.41
2019-05-13T07:42:53.559Z,78.31
2019-05-13T07:43:54.679Z,82.50
2019-05-13T07:44:54.209Z,76.70
2019-05-13T07:45:54.680Z,82.02
2019-05-13T07:46:54.317Z,84.27
2019-05-13T07:47:54.459Z,78.47
2019-05-13T07:48:55.189Z,79.44
2019-05-13T07:49:54.873Z,80.73
2019-05-13T07:51:00.366Z,81.53
2019-05-13T07:51:58.178Z,82.98
2019-05-13T07:52:55.698Z,79.28
2019-05-13T07:53:56.172Z,79.44
2019-05-13T07:54:56.672Z,77.34
2019-05-13T07:55:56.179Z,75.41
2019-05-13T07:56:57.204Z,79.12
2019-05-13T07:57:56.319Z,78.96
2019-05-13T07:58:56.455Z,80.08
2019-05-13T07:59:56.591Z,77.99
2019-05-13T08:00:56.781Z,79.92
2019-05-13T08:01:56.923Z,79.12
2019-05-13T08:02:57.067Z,83.95
2019-05-13T08:03:57.206Z,83.79
2019-05-13T08:04:57.388Z,79.44
2019-05-13T08:05:57.581Z,79.28
2019-05-13T08:07:01.592Z,79.28
2019-05-13T08:07:58.690Z,78.47
2019-05-13T08:08:58.086Z,79.76
2019-05-13T08:10:00.924Z,77.50
2019-05-13T08:11:01.209Z,78.31
2019-05-13T08:12:06.493Z,77.02
2019-05-13T08:13:02.367Z,77.67
2019-05-13T08:13:58.900Z,78.96
2019-05-13T08:14:59.065Z,81.21
2019-05-13T08:16:01.637Z,82.98
2019-05-13T08:16:59.394Z,76.86
2019-05-13T08:18:33.604Z,78.31
2019-05-13T08:19:01.824Z,80.89
2019-05-13T08:20:02.867Z,78.31
2019-05-13T08:21:01.988Z,79.92
2019-05-13T08:22:02.104Z,80.73
2019-05-13T08:23:02.694Z,78.47
2019-05-13T08:24:02.668Z,80.24
2019-05-13T08:25:03.333Z,76.54
2019-05-13T08:26:02.700Z,77.18
2019-05-13T08:27:02.057Z,77.67
2019-05-13T08:28:02.395Z,79.12
2019-05-13T08:29:04.893Z,81.53
2019-05-13T08:30:02.800Z,81.37
2019-05-13T08:31:02.705Z,78.63
2019-05-13T08:32:03.330Z,85.40
2019-05-13T08:33:03.227Z,78.96
2019-05-13T08:34:02.750Z,78.15
2019-05-13T08:35:08.752Z,81.37
2019-05-13T08:36:05.118Z,82.66
2019-05-13T08:37:03.434Z,77.67
2019-05-13T08:38:03.396Z,80.24
2019-05-13T08:39:03.725Z,79.12
2019-05-13T08:40:03.753Z,80.24
2019-05-13T08:41:03.890Z,80.41
2019-05-13T08:42:15.082Z,78.79
2019-05-13T08:43:07.042Z,81.05
2019-05-13T08:44:05.721Z,79.28
2019-05-13T08:45:04.733Z,77.34
2019-05-13T08:46:04.872Z,78.15
2019-05-13T08:47:04.996Z,77.18
2019-05-13T08:48:05.257Z,78.63
2019-05-13T08:49:06.199Z,77.18
2019-05-13T08:50:06.202Z,78.79
2019-05-13T08:51:05.737Z,78.79
2019-05-13T08:52:05.888Z,77.67
2019-05-13T08:53:06.704Z,81.37
2019-05-13T08:54:06.226Z,79.12
2019-05-13T08:55:06.374Z,81.53
2019-05-13T08:56:06.514Z,78.47
2019-05-13T08:57:07.215Z,78.15
2019-05-13T08:58:06.869Z,79.12
2019-05-13T08:59:06.998Z,80.89
2019-05-13T09:00:07.204Z,77.34
2019-05-13T09:01:07.345Z,77.34
2019-05-13T09:02:08.208Z,80.24
2019-05-13T09:03:07.736Z,77.67
2019-05-13T09:04:08.272Z,83.79
2019-05-13T09:05:07.998Z,75.09
2019-05-13T09:06:08.715Z,80.57
2019-05-13T09:07:08.335Z,82.02
2019-05-13T09:08:08.506Z,80.08
2019-05-13T09:09:11.310Z,77.18
2019-05-13T09:10:08.787Z,76.22
2019-05-13T09:11:08.914Z,76.22
2019-05-13T09:12:11.315Z,78.96
2019-05-13T09:13:09.256Z,77.99
2019-05-13T09:14:11.292Z,79.92
2019-05-13T09:15:11.838Z,83.47
2019-05-13T09:16:13.168Z,82.02
2019-05-13T09:17:12.019Z,78.96
2019-05-13T09:18:11.477Z,81.69
2019-05-13T09:19:15.922Z,78.47
2019-05-13T09:20:12.588Z,78.15
2019-05-13T09:21:11.731Z,77.83
2019-05-13T09:22:12.484Z,77.67
2019-05-13T09:23:11.934Z,80.73
2019-05-13T09:24:23.860Z,83.95
2019-05-13T09:25:13.298Z,77.18
2019-05-13T09:26:13.246Z,78.79
2019-05-13T09:27:12.143Z,81.21
2019-05-13T09:28:12.867Z,76.22
2019-05-13T09:29:12.124Z,83.14
2019-05-13T09:30:12.296Z,76.86
2019-05-13T09:31:12.799Z,81.37
2019-05-13T09:32:13.613Z,76.22
2019-05-13T09:33:12.815Z,79.28
2019-05-13T09:34:13.067Z,80.08
2019-05-13T09:35:13.201Z,76.38
2019-05-13T09:36:13.347Z,76.22
2019-05-13T09:37:13.488Z,75.57
2019-05-13T09:38:13.657Z,77.67
2019-05-13T09:39:13.812Z,75.89
2019-05-13T09:40:13.930Z,76.70
2019-05-13T09:41:15.251Z,73.48
2019-05-13T09:42:14.353Z,76.86
2019-05-13T09:43:14.488Z,80.73
2019-05-13T09:44:14.615Z,80.41
2019-05-13T09:45:15.706Z,82.98
2019-05-13T09:46:14.986Z,80.41
2019-05-13T09:47:15.114Z,77.67
2019-05-13T09:48:16.133Z,79.28
2019-05-13T09:49:19.874Z,78.96
2019-05-13T09:50:28.700Z,77.34
2019-05-13T09:51:17.783Z,76.05
2019-05-13T09:52:16.000Z,79.44
2019-05-13T09:53:16.152Z,78.47
2019-05-13T09:54:17.222Z,90.56
2019-05-13T09:55:26.349Z,81.37
2019-05-13T09:56:18.728Z,80.73
2019-05-13T09:57:17.721Z,79.44
2019-05-13T09:58:16.948Z,77.18
2019-05-13T09:59:17.209Z,78.96
2019-05-13T10:00:17.338Z,75.73
2019-05-13T10:01:17.514Z,75.09
2019-05-13T10:02:17.663Z,78.63
2019-05-13T10:03:17.829Z,77.99
2019-05-13T10:04:18.013Z,78.15
2019-05-13T10:05:18.180Z,76.38
2019-05-13T10:06:21.863Z,78.31
2019-05-13T10:07:18.613Z,76.86
2019-05-13T10:08:21.965Z,77.99
2019-05-13T10:09:18.883Z,77.50
2019-05-13T10:10:19.010Z,77.67
2019-05-13T10:11:21.621Z,78.96
2019-05-13T10:12:23.259Z,77.83
2019-05-13T10:13:19.521Z,78.63
2019-05-13T10:14:19.636Z,78.47
2019-05-13T10:15:22.100Z,76.54
2019-05-13T10:16:22.059Z,78.47
2019-05-13T10:17:22.103Z,77.99
2019-05-13T10:18:22.413Z,76.70
2019-05-13T10:19:21.510Z,78.15
2019-05-13T10:20:21.613Z,79.60
2019-05-13T10:21:21.811Z,77.67
2019-05-13T10:22:22.734Z,77.34
2019-05-13T10:23:22.001Z,79.28
2019-05-13T10:24:22.503Z,78.31
2019-05-13T10:25:22.686Z,80.24
2019-05-13T10:26:22.925Z,77.02
2019-05-13T10:27:22.779Z,76.70
2019-05-13T10:28:22.026Z,78.79
2019-05-13T10:29:22.594Z,80.24
2019-05-13T10:30:23.331Z,77.02
2019-05-13T10:31:22.558Z,77.18
2019-05-13T10:32:23.257Z,79.76
2019-05-13T10:33:22.896Z,82.82
2019-05-13T10:34:23.277Z,79.28
2019-05-13T10:35:23.741Z,82.34
2019-05-13T10:36:23.354Z,79.44
2019-05-13T10:37:24.230Z,81.37
2019-05-13T10:38:27.431Z,77.83
2019-05-13T10:39:25.246Z,79.28
2019-05-13T10:40:24.286Z,78.15
2019-05-13T10:41:24.149Z,76.38
2019-05-13T10:42:25.296Z,76.05
2019-05-13T10:43:31.346Z,79.92
2019-05-13T10:44:27.733Z,77.50
2019-05-13T10:45:25.959Z,79.44
2019-05-13T10:46:25.124Z,79.12
2019-05-13T10:47:26.266Z,83.14
2019-05-13T10:48:25.375Z,76.70
2019-05-13T10:49:25.496Z,79.76
2019-05-13T10:51:01.961Z,75.41
2019-05-13T10:51:26.297Z,70.09
2019-05-13T10:52:25.896Z,78.47
2019-05-13T10:53:26.057Z,77.99
2019-05-13T10:54:26.192Z,80.73
2019-05-13T10:55:27.259Z,79.44
2019-05-13T10:56:26.533Z,78.47
2019-05-13T10:57:27.258Z,77.18
2019-05-13T10:58:27.796Z,77.18
2019-05-13T10:59:27.028Z,75.89
2019-05-13T11:00:27.315Z,78.79
2019-05-13T11:01:27.348Z,84.11
2019-05-13T11:02:28.283Z,77.99
2019-05-13T11:03:27.679Z,80.41
2019-05-13T11:04:27.816Z,77.83
2019-05-13T11:05:27.982Z,79.28
2019-05-13T11:06:28.780Z,76.38
2019-05-13T11:07:28.361Z,78.47
2019-05-13T11:08:28.566Z,76.38
2019-05-13T11:09:28.715Z,77.67
2019-05-13T11:10:28.869Z,77.18
2019-05-13T11:11:32.060Z,83.14
2019-05-13T11:12:29.178Z,76.05
2019-05-13T11:13:48.806Z,76.54
2019-05-13T11:14:32.360Z,76.05
2019-05-13T11:15:35.937Z,79.28
2019-05-13T11:16:30.910Z,78.15
2019-05-13T11:17:32.968Z,77.50
2019-05-13T11:18:31.316Z,78.31
2019-05-13T11:19:36.134Z,78.63
2019-05-13T11:20:32.624Z,78.15
2019-05-13T11:21:32.202Z,78.63
2019-05-13T11:22:32.669Z,75.73
2019-05-13T11:23:32.283Z,75.89
2019-05-13T11:24:33.269Z,77.67
2019-05-13T11:25:32.397Z,77.83
2019-05-13T11:26:36.291Z,77.50
2019-05-13T11:27:32.847Z,82.02
2019-05-13T11:28:32.309Z,79.60
2019-05-13T11:29:32.829Z,78.96
2019-05-13T11:30:32.446Z,77.50
2019-05-13T11:31:33.285Z,75.89
2019-05-13T11:32:32.755Z,77.18
2019-05-13T11:33:33.280Z,77.83
2019-05-13T11:34:33.792Z,79.76
2019-05-13T11:35:33.798Z,77.67
2019-05-13T11:36:33.593Z,78.47
2019-05-13T11:37:33.796Z,78.96
2019-05-13T11:38:34.297Z,78.47
2019-05-13T11:39:34.793Z,76.22
2019-05-13T11:40:34.167Z,76.54
2019-05-13T11:41:34.304Z,76.70
2019-05-13T11:42:34.463Z,76.05
2019-05-13T11:43:34.621Z,74.60
2019-05-13T11:44:35.288Z,79.28
2019-05-13T11:45:35.770Z,76.22
2019-05-13T11:46:35.108Z,76.38
2019-05-13T11:47:36.282Z,78.15
2019-05-13T11:48:35.795Z,82.50
2019-05-13T11:49:35.790Z,78.96
2019-05-13T11:50:36.799Z,77.50
2019-05-13T11:51:36.045Z,79.28
2019-05-13T11:52:36.259Z,76.70
2019-05-13T11:53:37.717Z,76.86
2019-05-13T11:54:37.808Z,80.24
2019-05-13T11:55:36.786Z,76.38
2019-05-13T11:56:36.931Z,78.79
2019-05-13T11:57:37.060Z,80.73
2019-05-13T11:58:38.292Z,76.86
2019-05-13T11:59:37.542Z,76.05
2019-05-13T12:00:37.735Z,79.12
2019-05-13T12:01:37.892Z,79.12
2019-05-13T12:02:38.052Z,79.28
2019-05-13T12:03:38.193Z,76.70
2019-05-13T12:04:43.064Z,77.02
2019-05-13T12:05:38.798Z,76.86
2019-05-13T12:06:47.762Z,75.09
2019-05-13T12:07:40.238Z,75.25
2019-05-13T12:08:39.063Z,74.77
2019-05-13T12:09:39.199Z,79.28
2019-05-13T12:10:43.745Z,77.50
2019-05-13T12:11:39.568Z,77.50
2019-05-13T12:12:43.318Z,79.76
2019-05-13T12:13:42.047Z,77.18
2019-05-13T12:15:04.111Z,84.11
2019-05-13T12:15:46.787Z,75.89
2019-05-13T12:16:42.530Z,75.41
2019-05-13T12:17:43.078Z,77.02
2019-05-13T12:18:43.639Z,73.80
2019-05-13T12:19:42.002Z,77.99
2019-05-13T12:20:42.646Z,78.31
2019-05-13T12:21:46.447Z,79.76
2019-05-13T12:22:42.780Z,75.41
2019-05-13T12:23:42.920Z,78.31
2019-05-13T12:24:42.879Z,82.34
2019-05-13T12:25:43.747Z,77.34
2019-05-13T12:26:43.702Z,78.31
2019-05-13T12:27:43.538Z,75.73
2019-05-13T12:28:42.653Z,76.54
2019-05-13T12:29:43.247Z,75.89
2019-05-13T12:30:43.919Z,74.93
2019-05-13T12:31:43.049Z,77.67
2019-05-13T12:32:43.877Z,76.54
2019-05-13T12:33:45.281Z,81.53
2019-05-13T12:34:45.756Z,76.70
2019-05-13T12:35:44.864Z,78.96
2019-05-13T12:36:44.101Z,75.25
2019-05-13T12:37:44.265Z,75.73
2019-05-13T12:38:44.591Z,76.86
2019-05-13T12:39:44.630Z,75.41
2019-05-13T12:40:44.787Z,76.22
2019-05-13T12:41:45.782Z,79.28
2019-05-13T12:42:47.257Z,73.64
2019-05-13T12:43:46.832Z,76.70
2019-05-13T12:45:00.231Z,73.80
2019-05-13T12:45:45.805Z,78.63
2019-05-13T12:46:50.321Z,76.54
2019-05-13T12:47:47.092Z,75.09
2019-05-13T12:48:46.336Z,78.31
2019-05-13T12:49:47.302Z,83.14
2019-05-13T12:50:47.306Z,75.41
2019-05-13T12:51:46.815Z,82.34
2019-05-13T12:52:46.956Z,77.67
2019-05-13T12:53:47.328Z,83.14
2019-05-13T12:54:47.799Z,79.12